createdAt,value
2017-08-02T00:02:20.295Z,23.04
2017-08-02T00:04:47.989Z,23.01
2017-08-02T00:07:15.648Z,23.01
2017-08-02T00:09:43.292Z,23.00
2017-08-02T00:12:10.944Z,23.02
2017-08-02T00:14:38.580Z,23.00
2017-08-02T00:17:06.192Z,22.97
2017-08-02T00:19:33.844Z,22.92
2017-08-02T00:22:01.467Z,22.85
2017-08-02T00:24:29.109Z,22.79
2017-08-02T00:26:57.209Z,22.75
2017-08-02T00:29:24.858Z,22.72
2017-08-02T00:31:52.498Z,22.73
2017-08-02T00:34:20.214Z,22.66
2017-08-02T00:36:47.868Z,22.60
2017-08-02T00:39:15.473Z,22.59
2017-08-02T00:41:43.090Z,22.62
2017-08-02T00:44:10.740Z,22.57
2017-08-02T00:46:38.439Z,22.56
2017-08-02T00:49:06.071Z,22.51
2017-08-02T00:51:35.071Z,22.51
2017-08-02T00:54:02.706Z,22.56
2017-08-02T00:56:31.119Z,22.56
2017-08-02T00:58:58.801Z,22.58
2017-08-02T01:01:26.390Z,22.63
2017-08-02T01:03:54.035Z,22.67
2017-08-02T01:06:21.673Z,22.69
2017-08-02T01:08:50.802Z,22.70
2017-08-02T01:11:19.008Z,22.68
2017-08-02T01:13:46.625Z,22.67
2017-08-02T01:16:14.279Z,22.68
2017-08-02T01:18:41.893Z,22.70
2017-08-02T01:21:09.509Z,22.72
2017-08-02T01:23:37.108Z,22.70
2017-08-02T01:26:04.777Z,22.68
2017-08-02T01:28:32.388Z,22.64
2017-08-02T01:31:00.019Z,22.64
2017-08-02T01:33:27.619Z,22.64
2017-08-02T01:35:55.470Z,22.63
2017-08-02T01:38:23.071Z,22.64
2017-08-02T01:40:50.719Z,22.62
2017-08-02T01:43:18.332Z,22.59
2017-08-02T01:45:45.960Z,22.57
2017-08-02T01:48:13.562Z,22.51
2017-08-02T01:50:41.202Z,22.41
2017-08-02T01:53:08.827Z,22.31
2017-08-02T01:55:36.464Z,22.26
2017-08-02T01:58:04.110Z,22.23
2017-08-02T02:00:31.741Z,22.17
2017-08-02T02:02:59.358Z,22.10
2017-08-02T02:05:26.992Z,22.04
2017-08-02T02:07:54.619Z,21.97
2017-08-02T02:10:22.259Z,21.93
2017-08-02T02:12:49.855Z,21.94
2017-08-02T02:15:17.491Z,21.98
2017-08-02T02:17:45.139Z,22.01
2017-08-02T02:20:12.765Z,22.05
2017-08-02T02:22:40.383Z,22.10
2017-08-02T02:25:08.037Z,22.13
2017-08-02T02:27:35.660Z,22.11
2017-08-02T02:30:03.333Z,22.11
2017-08-02T02:32:31.189Z,22.10
2017-08-02T02:34:58.823Z,22.07
2017-08-02T02:37:26.426Z,22.01
2017-08-02T02:39:54.348Z,21.95
2017-08-02T02:42:21.974Z,21.98
2017-08-02T02:44:49.601Z,21.98
2017-08-02T02:47:17.565Z,21.97
2017-08-02T02:49:45.269Z,21.95
2017-08-02T02:52:12.946Z,21.90
2017-08-02T02:54:40.646Z,21.82
2017-08-02T02:57:08.283Z,21.76
2017-08-02T02:59:35.920Z,21.72
2017-08-02T03:02:03.553Z,21.62
2017-08-02T03:04:31.155Z,21.51
2017-08-02T03:06:58.798Z,21.45
2017-08-02T03:09:26.403Z,21.39
2017-08-02T03:11:59.870Z,21.36
2017-08-02T03:14:27.476Z,21.26
2017-08-02T03:16:55.136Z,21.19
2017-08-02T03:19:24.004Z,21.16
2017-08-02T03:21:51.846Z,21.11
2017-08-02T03:24:19.478Z,21.09
2017-08-02T03:26:48.071Z,21.10
2017-08-02T03:29:15.710Z,21.14
2017-08-02T03:31:43.430Z,21.16
2017-08-02T03:34:11.043Z,21.11
2017-08-02T03:36:38.689Z,21.09
2017-08-02T03:39:06.314Z,21.10
2017-08-02T03:41:33.960Z,21.04
2017-08-02T03:44:01.604Z,20.97
2017-08-02T03:46:29.430Z,20.89
2017-08-02T03:48:57.070Z,20.76
2017-08-02T03:51:24.720Z,20.78
2017-08-02T03:53:52.351Z,20.85
2017-08-02T03:56:19.980Z,20.88
2017-08-02T03:58:47.576Z,20.84
2017-08-02T04:01:15.213Z,20.82
2017-08-02T04:03:42.825Z,20.82
2017-08-02T04:06:10.463Z,20.85
2017-08-02T04:08:38.079Z,20.87
2017-08-02T04:11:05.711Z,20.87
2017-08-02T04:13:33.298Z,20.89
2017-08-02T04:16:00.930Z,20.86
2017-08-02T04:18:28.634Z,20.80
2017-08-02T04:20:56.258Z,20.75
2017-08-02T04:23:23.895Z,20.74
2017-08-02T04:25:51.522Z,20.75
2017-08-02T04:28:19.204Z,20.75
2017-08-02T04:30:46.843Z,20.68
2017-08-02T04:33:14.498Z,20.53
2017-08-02T04:35:42.114Z,20.42
2017-08-02T04:38:10.047Z,20.41
2017-08-02T04:40:37.657Z,20.37
2017-08-02T04:43:05.304Z,20.38
2017-08-02T04:45:34.028Z,20.40
2017-08-02T04:48:03.166Z,20.43
2017-08-02T04:50:32.056Z,20.41
2017-08-02T04:52:59.696Z,20.46
2017-08-02T04:55:27.715Z,20.52
2017-08-02T04:57:55.381Z,20.60
2017-08-02T05:00:23.219Z,20.67
2017-08-02T05:02:50.919Z,20.68
2017-08-02T05:05:18.546Z,20.70
2017-08-02T05:07:46.177Z,20.70
2017-08-02T05:10:14.455Z,20.69
2017-08-02T05:12:42.082Z,20.72
2017-08-02T05:15:09.717Z,20.70
2017-08-02T05:17:37.483Z,20.66
2017-08-02T05:20:05.101Z,20.67
2017-08-02T05:22:32.889Z,20.68
2017-08-02T05:25:00.488Z,20.72
2017-08-02T05:27:28.147Z,20.70
2017-08-02T05:29:55.768Z,20.74
2017-08-02T05:32:23.426Z,20.76
2017-08-02T05:34:51.066Z,20.78
2017-08-02T05:37:18.713Z,20.77
2017-08-02T05:39:47.385Z,20.79
2017-08-02T05:42:15.035Z,20.81
2017-08-02T05:44:43.759Z,20.87
2017-08-02T05:47:11.378Z,20.90
2017-08-02T05:49:39.015Z,20.95
2017-08-02T05:52:06.630Z,20.98
2017-08-02T05:54:34.266Z,21.04
2017-08-02T05:57:01.856Z,21.11
2017-08-02T05:59:29.508Z,21.16
2017-08-02T06:01:57.123Z,21.18
2017-08-02T06:04:24.794Z,21.22
2017-08-02T06:06:52.441Z,21.26
2017-08-02T06:09:20.065Z,21.29
2017-08-02T06:11:47.696Z,21.37
2017-08-02T06:14:15.353Z,21.44
2017-08-02T06:16:42.979Z,21.49
2017-08-02T06:19:10.614Z,21.50
2017-08-02T06:21:38.225Z,21.52
2017-08-02T06:24:05.884Z,21.51
2017-08-02T06:26:33.492Z,21.55
2017-08-02T06:29:01.123Z,21.56
2017-08-02T06:31:29.219Z,21.65
2017-08-02T06:33:57.216Z,21.73
2017-08-02T06:36:24.848Z,21.77
2017-08-02T06:38:52.487Z,21.85
2017-08-02T06:41:20.156Z,21.92
2017-08-02T06:43:47.960Z,21.95
2017-08-02T06:46:15.577Z,22.00
2017-08-02T06:48:43.256Z,22.03
2017-08-02T06:51:10.882Z,22.07
2017-08-02T06:53:38.553Z,22.13
2017-08-02T06:56:06.235Z,22.20
2017-08-02T06:58:34.476Z,22.25
2017-08-02T07:01:02.091Z,22.33
2017-08-02T07:03:29.860Z,22.39
2017-08-02T07:05:57.528Z,22.46
2017-08-02T07:08:25.155Z,22.54
2017-08-02T07:10:52.879Z,22.62
2017-08-02T07:13:20.795Z,22.70
2017-08-02T07:15:48.428Z,22.77
2017-08-02T07:18:16.094Z,22.92
2017-08-02T07:20:43.943Z,23.07
2017-08-02T07:23:11.646Z,23.25
2017-08-02T07:25:39.287Z,23.41
2017-08-02T07:28:06.877Z,23.58
2017-08-02T07:30:34.797Z,23.75
2017-08-02T07:33:02.418Z,23.87
2017-08-02T07:35:30.717Z,23.98
2017-08-02T07:37:58.423Z,23.99
2017-08-02T07:40:26.048Z,23.98
2017-08-02T07:42:54.150Z,24.07
2017-08-02T07:45:21.795Z,24.17
2017-08-02T07:47:49.419Z,24.15
2017-08-02T07:50:17.041Z,24.11
2017-08-02T07:52:44.696Z,24.19
2017-08-02T07:55:12.333Z,24.29
2017-08-02T07:57:39.932Z,24.32
2017-08-02T08:00:07.559Z,24.36
2017-08-02T08:02:35.180Z,24.42
2017-08-02T08:05:02.819Z,24.51
2017-08-02T08:07:30.448Z,24.62
2017-08-02T08:09:58.085Z,24.71
2017-08-02T08:12:25.806Z,24.69
2017-08-02T08:14:53.486Z,24.65
2017-08-02T08:17:21.195Z,24.62
2017-08-02T08:19:48.893Z,24.61
2017-08-02T08:22:16.532Z,24.60
2017-08-02T08:24:44.300Z,24.63
2017-08-02T08:27:11.919Z,24.66
2017-08-02T08:29:39.597Z,24.68
2017-08-02T08:32:07.273Z,24.70
2017-08-02T08:34:34.944Z,24.72
2017-08-02T08:37:02.605Z,24.72
2017-08-02T08:39:30.251Z,24.64
2017-08-02T08:41:58.040Z,24.60
2017-08-02T08:44:26.103Z,24.66
2017-08-02T08:46:53.722Z,24.80
2017-08-02T08:49:21.339Z,24.93
2017-08-02T08:51:49.114Z,25.04
2017-08-02T08:54:16.754Z,25.07
2017-08-02T08:56:44.424Z,25.12
2017-08-02T08:59:12.041Z,25.19
2017-08-02T09:01:39.670Z,25.28
2017-08-02T09:04:07.286Z,25.39
2017-08-02T09:06:34.926Z,25.44
2017-08-02T09:09:02.690Z,25.57
2017-08-02T09:11:30.376Z,25.72
2017-08-02T09:13:58.066Z,25.82
2017-08-02T09:16:25.867Z,25.86
2017-08-02T09:18:53.542Z,25.92
2017-08-02T09:21:21.198Z,25.99
2017-08-02T09:23:49.726Z,26.13
2017-08-02T09:26:17.391Z,26.21
2017-08-02T09:28:45.009Z,26.17
2017-08-02T09:31:12.668Z,26.14
2017-08-02T09:33:40.280Z,26.17
2017-08-02T09:36:07.919Z,26.25
2017-08-02T09:38:35.618Z,26.31
2017-08-02T09:41:03.373Z,26.35
2017-08-02T09:43:30.984Z,26.37
2017-08-02T09:45:58.640Z,26.41
2017-08-02T09:48:26.402Z,26.48
2017-08-02T09:50:54.026Z,26.59
2017-08-02T09:53:21.642Z,26.72
2017-08-02T09:55:49.299Z,26.76
2017-08-02T09:58:17.010Z,26.77
2017-08-02T10:00:44.770Z,26.80
2017-08-02T10:03:12.348Z,26.85
2017-08-02T10:05:39.978Z,26.74
2017-08-02T10:08:07.595Z,26.79
2017-08-02T10:10:35.335Z,26.91
2017-08-02T10:13:02.963Z,26.93
2017-08-02T10:15:30.571Z,26.96
2017-08-02T10:17:58.204Z,27.02
2017-08-02T10:20:25.870Z,27.10
2017-08-02T10:22:53.552Z,27.09
2017-08-02T10:25:21.176Z,27.12
2017-08-02T10:27:48.820Z,27.15
2017-08-02T10:30:16.473Z,27.19
2017-08-02T10:32:44.202Z,27.24
2017-08-02T10:35:11.829Z,27.30
2017-08-02T10:37:39.603Z,27.39
2017-08-02T10:40:07.175Z,27.46
2017-08-02T10:42:34.797Z,27.60
2017-08-02T10:45:02.439Z,27.72
2017-08-02T10:47:30.099Z,27.71
2017-08-02T10:49:59.187Z,27.80
2017-08-02T10:52:26.822Z,27.81
2017-08-02T10:54:54.431Z,27.86
2017-08-02T10:57:22.137Z,27.93
2017-08-02T10:59:49.755Z,27.87
2017-08-02T11:02:17.408Z,27.83
2017-08-02T11:04:45.575Z,27.91
2017-08-02T11:07:13.342Z,28.04
2017-08-02T11:09:40.983Z,28.12
2017-08-02T11:12:08.678Z,28.20
2017-08-02T11:14:36.306Z,28.21
2017-08-02T11:17:03.962Z,28.33
2017-08-02T11:19:31.619Z,28.47
2017-08-02T11:21:59.265Z,28.52
2017-08-02T11:24:26.893Z,28.50
2017-08-02T11:26:54.549Z,28.40
2017-08-02T11:29:22.160Z,28.31
2017-08-02T11:31:49.829Z,28.34
2017-08-02T11:34:17.584Z,28.31
2017-08-02T11:36:45.250Z,28.25
2017-08-02T11:39:12.843Z,28.32
2017-08-02T11:41:40.855Z,28.37
2017-08-02T11:44:08.487Z,28.29
2017-08-02T11:46:36.100Z,28.19
2017-08-02T11:49:03.774Z,28.07
2017-08-02T11:51:31.389Z,28.00
2017-08-02T11:53:59.075Z,27.98
2017-08-02T11:56:26.706Z,28.07
2017-08-02T11:58:54.323Z,28.27
2017-08-02T12:01:21.938Z,28.45
2017-08-02T12:03:49.685Z,28.52
2017-08-02T12:06:17.392Z,28.62
2017-08-02T12:08:45.055Z,28.60
2017-08-02T12:11:12.822Z,28.66
2017-08-02T12:13:40.469Z,28.78
2017-08-02T12:16:08.109Z,28.81
2017-08-02T12:18:35.913Z,28.87
2017-08-02T12:24:05.857Z,28.94
2017-08-02T12:26:33.521Z,29.03
2017-08-02T12:29:01.186Z,29.09
2017-08-02T12:31:28.794Z,29.09
2017-08-02T12:33:56.423Z,29.17
